Latest Weather Observations for Beaudesert AWS

IDQ60801

Issued at 9:02 am EST Tuesday 9 February 2016 (issued every 30 minutes, with the page automatically refreshed every 10 minutes)

About weather observations | Map of weather stations | Latest weather observations for QLD | Other Formats
Station Details ID: 040983 Name: BEAUDESERT DRUMLEY STREET Lat: -27.97 Lon: 152.99 Height: 47.81 m
Data from the previous 72 hours. | See also: Recent months at Beaudesert AWS
Date/Time
EST
Temp
°C
App
Temp
°C
Dew
Point
Rel
Hum
%
Delta-T
°C
Wind Press
QNH
hPa
Press
MSL
hPa
Rain
since 9 am
mm
Dir
 
Spd
km/h
Gust
km/h
Spd
kts
Gust
kts
09/09:00am 26.1 25.2 16.9 57 5.7 SSE 17 26 9 14 1016.1 1015.9 0.0
09/08:30am 25.8 26.0 17.7 61 5.1 S 13 20 7 11 1016.1 1015.9 0.0
09/08:00am 24.6 25.0 18.1 67 4.1 S 13 20 7 11 1016.1 1015.9 0.0
09/07:30am 23.7 24.8 18.1 71 3.5 SSW 9 15 5 8 1016.2 1016.0 0.0
09/07:00am 22.9 25.3 18.0 74 3.1 SSW 2 9 1 5 1016.0 1015.8 0.0
09/06:30am 21.6 23.9 17.6 78 2.5 S 2 6 1 3 1015.7 1015.5 0.0
09/06:00am 20.8 22.1 17.2 80 2.2 SE 6 9 3 5 1015.1 1014.9 0.0
09/05:30am 19.9 21.1 16.9 83 1.8 SSE 6 7 3 4 1014.6 1014.4 0.0
09/05:00am 19.4 21.0 16.8 85 1.6 ESE 4 6 2 3 1014.3 1014.1 0.0
09/04:30am 19.5 20.8 17.1 86 1.5 S 6 9 3 5 1014.1 1013.9 0.0
09/04:00am 18.5 20.4 16.8 90 1.0 SE 2 4 1 2 1013.9 1013.7 0.0
09/03:30am 18.1 20.3 16.4 90 1.0 CALM 0 0 0 0 1013.9 1013.7 0.0
09/03:00am 19.2 21.3 17.3 89 1.2 S 2 4 1 2 1014.0 1013.8 0.0
09/02:30am 18.8 21.2 16.9 89 1.1 CALM 0 0 0 0 1014.2 1014.0 0.0
09/02:00am 19.4 21.8 17.0 86 1.5 CALM 0 0 0 0 1014.3 1014.1 0.0
09/01:30am 19.5 21.6 17.1 86 1.5 E 2 4 1 2 1014.5 1014.3 0.0
09/01:00am 17.7 19.5 15.5 87 1.3 CALM 0 0 0 0 1014.8 1014.6 0.0
09/12:30am 19.1 20.6 15.8 81 2.0 E 2 6 1 3 1015.0 1014.8 0.0
09/12:00am 19.8 21.6 16.4 81 2.0 SSE 2 4 1 2 1015.2 1015.0 0.0
 
Date/Time
EST
Temp
°C
App
Temp
°C
Dew
Point
Rel
Hum
%
Delta-T
°C
Wind Press
QNH
hPa
Press
MSL
hPa
Rain
since 9 am
mm
Dir
 
Spd
km/h
Gust
km/h
Spd
kts
Gust
kts
08/11:30pm 20.4 22.0 16.8 80 2.2 SSE 4 6 2 3 1015.6 1015.4 0.0
08/11:00pm 20.6 22.5 16.8 79 2.3 SSW 2 4 1 2 1015.8 1015.6 0.0
08/10:30pm 22.0 23.1 16.5 71 3.3 SE 6 9 3 5 1015.9 1015.7 0.0
08/10:00pm 22.2 23.7 16.7 71 3.4 SE 4 9 2 5 1015.9 1015.7 0.0
08/09:30pm 22.4 23.5 16.7 70 3.5 SE 6 9 3 5 1016.0 1015.8 0.0
08/09:00pm 23.1 24.2 17.1 69 3.7 SE 7 11 4 6 1016.0 1015.8 0.0
08/08:30pm 23.2 24.5 17.0 68 3.8 SE 6 7 3 4 1015.7 1015.5 0.0
08/08:00pm 23.7 25.0 17.0 66 4.1 ESE 6 9 3 5 1015.2 1015.0 0.0
08/07:30pm 24.6 25.2 16.8 62 4.8 SE 9 13 5 7 1014.8 1014.6 0.0
08/07:00pm 25.2 26.1 16.6 59 5.3 SE 7 15 4 8 1014.2 1014.0 0.0
08/06:30pm 26.4 25.6 16.1 53 6.3 SE 15 20 8 11 1013.7 1013.5 0.0
08/06:00pm 27.5 26.5 15.5 48 7.3 SE 15 22 8 12 1013.2 1013.0 0.0
08/05:30pm 28.1 27.0 15.4 46 7.8 SE 15 22 8 12 1012.8 1012.6 0.0
08/05:00pm 28.9 27.8 15.4 44 8.3 SSE 15 24 8 13 1012.6 1012.4 0.0
08/04:30pm 29.1 27.2 15.2 42 8.5 SE 19 30 10 16 1012.7 1012.5 0.0
08/04:00pm 29.1 27.3 15.6 44 8.3 SSE 19 33 10 18 1012.6 1012.4 0.0
08/03:30pm 29.1 27.5 14.9 42 8.7 SE 17 28 9 15 1012.8 1012.6 0.0
08/03:00pm 28.6 27.4 16.2 47 7.7 SSE 17 28 9 15 1013.0 1012.8 0.0
08/02:30pm 29.3 28.9 17.2 48 7.6 SSW 15 24 8 13 1013.1 1012.9 0.0
08/02:00pm 28.9 29.2 17.1 49 7.4 SSE 11 22 6 12 1013.5 1013.3 0.0
08/01:30pm 28.7 28.3 17.2 49 7.2 SSE 15 22 8 12 1013.8 1013.6 0.0
08/01:00pm 28.2 27.9 15.5 46 7.8 S 11 26 6 14 1014.0 1013.8 0.0
08/12:30pm 28.3 27.8 16.9 50 7.1 S 15 24 8 13 1014.4 1014.2 0.0
08/12:00pm 27.7 28.1 17.3 53 6.5 S 11 22 6 12 1014.5 1014.3 0.0
08/11:30am 27.0 27.3 16.9 54 6.3 SSE 11 24 6 13 1015.0 1014.8 0.0
08/11:00am 27.2 27.6 18.2 58 5.7 SW 13 22 7 12 1015.4 1015.2 0.0
08/10:30am 26.4 26.2 17.7 58 5.5 SSW 15 22 8 12 1015.7 1015.5 0.0
08/10:00am 26.0 27.3 18.4 63 4.8 SSW 9 17 5 9 1016.0 1015.8 0.0
08/09:30am 25.6 25.7 18.3 64 4.6 SW 15 22 8 12 1016.1 1015.9 0.0
08/09:00am 24.8 25.0 16.8 61 4.9 SSW 11 17 6 9 1016.3 1016.1 0.2
08/08:30am 24.1 24.0 16.9 64 4.4 SSW 13 19 7 10 1016.2 1016.0 0.2
08/08:00am 23.5 24.2 17.9 71 3.5 SSW 11 17 6 9 1016.2 1016.0 0.2
08/07:30am 21.7 24.0 17.7 78 2.5 S 2 4 1 2 1016.2 1016.0 0.2
08/07:00am 19.7 22.3 17.5 87 1.3 CALM 0 0 0 0 1015.9 1015.7 0.2
08/06:30am 17.7 20.2 17.2 97 0.3 CALM 0 0 0 0 1015.7 1015.5 0.2
08/06:00am 16.1 18.1 15.9 99 0.1 CALM 0 0 0 0 1015.1 1014.9 0.2
08/05:30am 15.3 16.9 15.0 98 0.2 CALM 0 0 0 0 1014.9 1014.7 0.2
08/05:00am 15.0 16.4 14.4 96 0.3 CALM 0 0 0 0 1014.7 1014.5 0.2
08/04:30am 15.3 16.8 14.7 96 0.3 CALM 0 4 0 2 1014.6 1014.4 0.2
08/04:00am 16.0 17.7 15.2 95 0.5 CALM 0 0 0 0 1014.6 1014.4 0.2
08/03:30am 16.1 17.8 15.3 95 0.5 CALM 0 0 0 0 1014.5 1014.3 0.2
08/03:00am 17.0 18.8 16.4 96 0.4 NE 2 6 1 3 1014.6 1014.4 0.2
08/02:30am 17.1 19.3 16.5 96 0.4 CALM 0 0 0 0 1014.7 1014.5 0.2
08/02:00am 16.9 18.9 15.9 94 0.6 CALM 0 2 0 1 1014.8 1014.6 0.2
08/01:30am 17.1 18.9 15.6 91 0.9 CALM 0 0 0 0 1014.9 1014.7 0.2
08/01:00am 17.8 19.2 16.3 91 0.9 NE 4 6 2 3 1015.1 1014.9 0.2
08/12:30am 17.4 19.5 16.3 93 0.7 CALM 0 0 0 0 1015.5 1015.3 0.2
08/12:00am 17.8 20.1 16.7 93 0.7 CALM 0 0 0 0 1015.9 1015.7 0.2
 
Date/Time
EST
Temp
°C
App
Temp
°C
Dew
Point
Rel
Hum
%
Delta-T
°C
Wind Press
QNH
hPa
Press
MSL
hPa
Rain
since 9 am
mm
Dir
 
Spd
km/h
Gust
km/h
Spd
kts
Gust
kts
07/11:30pm 18.1 20.4 16.8 92 0.8 CALM 0 0 0 0 1015.9 1015.7 0.2
07/11:00pm 18.3 20.3 16.1 87 1.3 CALM 0 0 0 0 1016.1 1015.9 0.2
07/10:30pm 19.5 21.9 16.9 85 1.6 CALM 0 0 0 0 1016.1 1015.9 0.2
07/10:00pm 20.0 22.6 17.6 86 1.5 CALM 0 0 0 0 1016.1 1015.9 0.2
07/09:30pm 20.2 22.1 16.6 80 2.2 S 2 6 1 3 1015.9 1015.7 0.2
07/09:00pm 21.4 22.6 16.8 75 2.8 S 6 6 3 3 1015.6 1015.4 0.2
07/08:30pm 22.7 23.8 16.5 68 3.8 SE 6 7 3 4 1015.4 1015.2 0.2
07/08:00pm 22.7 23.9 16.9 70 3.6 ESE 6 9 3 5 1015.1 1014.9 0.2
07/07:30pm 22.7 24.1 17.4 72 3.3 SE 6 6 3 3 1014.9 1014.7 0.2
07/07:00pm 23.4 24.8 17.4 69 3.7 ESE 6 7 3 4 1014.5 1014.3 0.2
07/06:30pm 24.2 25.3 17.2 65 4.3 ESE 7 13 4 7 1014.0 1013.8 0.2
07/06:00pm 24.9 27.0 18.1 66 4.3 ESE 4 9 2 5 1013.6 1013.4 0.2
07/05:30pm 25.2 27.4 18.4 66 4.3 ESE 4 6 2 3 1013.4 1013.2 0.2
07/05:00pm 25.4 27.4 18.8 67 4.2 E 6 13 3 7 1013.2 1013.0 0.2
07/04:30pm 25.1 26.9 18.8 68 4.0 E 7 13 4 7 1012.8 1012.6 0.2
07/04:00pm 26.0 26.5 18.4 63 4.8 SSW 13 24 7 13 1012.8 1012.6 0.2
07/03:30pm 25.9 26.3 18.1 62 4.9 SSE 13 22 7 12 1012.7 1012.5 0.2
07/03:00pm 25.9 26.7 18.1 62 4.9 SSW 11 17 6 9 1012.8 1012.6 0.2
07/02:30pm 25.8 26.0 17.7 61 5.1 SSW 13 19 7 10 1013.0 1012.8 0.2
07/02:00pm 25.9 26.4 18.3 63 4.8 SSW 13 19 7 10 1013.1 1012.9 0.2
07/01:30pm 25.1 25.5 18.1 65 4.4 SSW 13 24 7 13 1013.3 1013.1 0.2
07/01:00pm 25.0 25.0 18.2 66 4.3 SSW 15 22 8 12 1013.3 1013.1 0.2
07/12:30pm 25.0 24.3 18.2 66 4.3 SSW 19 32 10 17 1013.4 1013.2 0.2
07/12:00pm 26.1 25.6 19.2 65 4.4 SSW 20 28 11 15 1013.5 1013.3 0.2
07/11:30am 25.9 25.6 19.1 66 4.4 SSW 19 26 10 14 1013.6 1013.4 0.2
07/11:00am 23.6 22.3 17.3 67 3.9 SSW 20 33 11 18 1014.1 1013.9 0.2
07/10:30am 24.5 23.5 18.0 67 4.1 S 20 30 11 16 1013.8 1013.6 0.2
07/10:00am 24.4 23.6 18.1 68 4.0 SSW 19 24 10 13 1014.5 1014.3 0.0
07/09:30am 23.4 22.7 18.3 73 3.2 SSW 19 28 10 15 1014.5 1014.3 0.0
07/09:00am 23.0 23.2 18.5 76 2.8 SW 15 24 8 13 1014.5 1014.3 4.2
07/08:30am 23.1 23.3 18.6 76 2.8 SSW 15 26 8 14 1014.3 1014.1 4.2
07/08:00am 22.4 23.2 18.2 77 2.6 S 11 20 6 11 1014.0 1013.8 4.2
07/07:30am 21.7 22.1 18.1 80 2.2 SSW 13 22 7 12 1013.7 1013.5 4.2
07/07:00am 21.5 22.8 18.5 83 1.9 SSW 9 13 5 7 1013.8 1013.6 4.2
07/06:30am 21.0 22.6 18.2 84 1.7 S 7 13 4 7 1013.4 1013.2 4.2
07/06:00am 20.7 22.6 18.5 87 1.4 S 6 13 3 7 1013.3 1013.1 4.2
07/05:30am 20.3 22.2 19.0 92 0.8 SW 7 9 4 5 1013.1 1012.9 4.2
07/05:00am 20.3 22.5 19.3 94 0.6 SSW 6 7 3 4 1012.6 1012.4 4.2
07/04:30am 20.3 22.6 19.5 95 0.5 SW 6 11 3 6 1012.5 1012.2 4.2
07/04:00am 20.6 23.0 19.6 94 0.6 SSW 6 7 3 4 1012.4 1012.1 4.2
07/03:30am 20.6 22.5 19.8 95 0.5 SW 9 13 5 7 1012.5 1012.2 4.2
07/03:00am 20.9 22.5 19.9 94 0.6 SW 11 17 6 9 1012.2 1011.9 4.2
07/02:30am 21.2 24.4 20.4 95 0.5 W 4 4 2 2 1012.2 1011.9 4.2
07/02:00am 21.1 24.6 20.4 96 0.5 W 2 4 1 2 1012.2 1011.9 4.2
07/01:30am 21.1 24.3 20.4 96 0.5 SSW 4 6 2 3 1011.9 1011.6 4.2
07/01:00am 21.1 24.6 20.4 96 0.5 SW 2 4 1 2 1012.0 1011.7 4.2
07/12:30am 21.1 25.0 20.3 95 0.5 CALM 0 0 0 0 1012.1 1011.8 4.0
07/12:00am 21.3 24.1 20.5 95 0.5 SSW 6 7 3 4 1012.6 1012.4 3.8
 
Date/Time
EST
Temp
°C
App
Temp
°C
Dew
Point
Rel
Hum
%
Delta-T
°C
Wind Press
QNH
hPa
Press
MSL
hPa
Rain
since 9 am
mm
Dir
 
Spd
km/h
Gust
km/h
Spd
kts
Gust
kts
06/11:30pm 21.7 24.4 20.3 92 0.9 SSW 6 9 3 5 1012.9 1012.7 3.8
06/11:00pm 22.5 25.7 20.4 88 1.4 S 4 6 2 3 1013.2 1013.0 3.6
06/10:30pm 22.6 26.2 20.5 88 1.4 SSE 2 2 1 1 1013.7 1013.5 3.6
06/10:00pm 22.7 26.0 20.8 89 1.2 WSW 4 6 2 3 1013.8 1013.6 3.6
06/09:30pm 22.7 26.6 20.4 87 1.5 CALM 0 0 0 0 1013.6 1013.4 3.6
06/09:00pm 22.5 26.0 20.4 88 1.4 SW 2 4 1 2 1013.3 1013.1 3.6
06/08:30pm 23.1 26.1 20.1 83 1.9 ESE 4 4 2 2 1012.9 1012.7 3.6
06/08:00pm 22.9 25.5 20.1 84 1.8 SSE 6 7 3 4 1012.7 1012.5 3.6
06/07:30pm 23.4 27.2 20.9 86 1.6 SSE 2 6 1 3 1012.2 1011.9 3.6
06/07:00pm 23.3 27.0 20.8 86 1.6 SW 2 4 1 2 1011.9 1011.6 3.6
06/06:30pm 23.5 26.8 20.8 85 1.8 SSW 4 6 2 3 1011.5 1011.2 3.6
06/06:00pm 23.7 26.2 20.2 81 2.3 S 7 13 4 7 1011.2 1010.9 3.6
06/05:30pm 25.1 26.1 19.5 71 3.6 SE 13 22 7 12 1010.7 1010.4 3.6
06/05:00pm 24.9 27.5 20.4 76 2.9 SE 7 15 4 8 1010.2 1009.9 3.6
06/04:30pm 26.2 27.4 19.8 68 4.2 ESE 13 22 7 12 1010.0 1009.7 3.6
06/04:00pm 26.3 26.7 19.9 68 4.2 ESE 17 26 9 14 1009.7 1009.4 3.6
06/03:30pm 26.4 27.2 20.7 71 3.8 ESE 17 35 9 19 1009.7 1009.4 3.6
06/03:00pm 27.1 27.9 20.7 68 4.2 S 17 26 9 14 1009.6 1009.3 3.6
06/02:30pm 27.1 26.5 20.4 66 4.4 SE 24 37 13 20 1009.7 1009.4 3.6
06/02:00pm 25.8 28.9 22.1 80 2.5 SSE 9 17 5 9 1010.1 1009.8 3.6
06/01:30pm 23.9 25.0 20.4 81 2.3 ESE 15 28 8 15 1010.5 1010.2 1.8
06/01:00pm 27.9 30.2 20.7 65 4.8 SE 9 20 5 11 1010.4 1010.1 0.0
06/12:30pm 26.1 27.8 21.7 77 2.9 SSW 15 20 8 11 1010.7 1010.4 0.0
06/12:00pm 27.2 29.4 20.5 67 4.4 SSE 9 17 5 9 1010.8 1010.5 0.0
06/11:30am 26.7 28.5 21.2 72 3.7 SSW 13 19 7 10 1011.2 1010.9 0.0
06/11:00am 27.5 28.3 19.8 63 5.0 SE 15 22 8 12 1011.4 1011.1 0.0
06/10:30am 27.1 29.6 20.2 66 4.5 S 7 13 4 7 1011.5 1011.2 0.0
06/10:00am 26.2 28.4 20.5 71 3.7 SSW 9 17 5 9 1011.8 1011.5 0.0
06/09:30am 24.2 26.0 20.3 79 2.5 S 11 19 6 10 1012.1 1011.8 0.0

Other Formats:

Comma delimited format used in spreadsheet applications
http://www.bom.gov.au/fwo/IDQ60801/IDQ60801.95575.axf

JavaScript Object Notation format (JSON) in row-major order
http://www.bom.gov.au/fwo/IDQ60801/IDQ60801.95575.json